createdAt,value
2019-02-23T00:00:08.354Z,5.59
2019-02-23T00:02:35.653Z,5.51
2019-02-23T00:05:02.869Z,5.51
2019-02-23T00:07:30.092Z,5.43
2019-02-23T00:09:57.283Z,5.29
2019-02-23T00:12:24.736Z,5.39
2019-02-23T00:14:51.973Z,5.37
2019-02-23T00:17:19.134Z,5.33
2019-02-23T00:19:46.378Z,5.16
2019-02-23T00:22:13.929Z,5.15
2019-02-23T00:24:41.108Z,5.04
2019-02-23T00:27:08.300Z,5.02
2019-02-23T00:29:35.491Z,4.96
2019-02-23T00:32:02.803Z,4.97
2019-02-23T00:34:29.971Z,4.88
2019-02-23T00:36:57.207Z,4.85
2019-02-23T00:39:24.376Z,4.78
2019-02-23T00:41:51.619Z,4.88
2019-02-23T00:44:19.047Z,4.96
2019-02-23T00:46:46.249Z,5.07
2019-02-23T00:49:13.435Z,5.25
2019-02-23T00:51:40.676Z,5.43
2019-02-23T00:54:07.837Z,5.59
2019-02-23T00:56:35.020Z,5.70
2019-02-23T00:59:02.660Z,5.78
2019-02-23T01:01:29.850Z,5.88
2019-02-23T01:03:57.031Z,5.96
2019-02-23T01:06:24.262Z,6.02
2019-02-23T01:08:51.455Z,6.09
2019-02-23T01:11:18.649Z,6.15
2019-02-23T01:13:45.861Z,6.20
2019-02-23T01:16:13.294Z,6.17
2019-02-23T01:18:40.456Z,6.17
2019-02-23T01:21:07.644Z,6.15
2019-02-23T01:23:34.844Z,6.15
2019-02-23T01:26:02.008Z,6.15
2019-02-23T01:28:29.227Z,6.17
2019-02-23T01:30:56.427Z,6.17
2019-02-23T01:33:23.580Z,6.16
2019-02-23T01:35:50.682Z,6.14
2019-02-23T01:38:17.888Z,6.14
2019-02-23T01:40:45.191Z,6.12
2019-02-23T01:43:12.386Z,6.10
2019-02-23T01:45:42.405Z,6.06
2019-02-23T01:48:08.656Z,6.06
2019-02-23T01:50:35.762Z,6.03
2019-02-23T01:53:03.036Z,5.99
2019-02-23T01:55:30.249Z,6.23
2019-02-23T01:57:57.701Z,6.16
2019-02-23T02:00:25.356Z,6.00
2019-02-23T02:02:52.554Z,5.95
2019-02-23T02:05:19.785Z,6.05
2019-02-23T02:07:46.935Z,6.13
2019-02-23T02:10:14.232Z,6.17
2019-02-23T02:12:41.554Z,6.09
2019-02-23T02:15:10.830Z,6.06
2019-02-23T02:17:37.889Z,6.10
2019-02-23T02:20:11.160Z,6.04
2019-02-23T02:22:34.222Z,6.09
2019-02-23T02:25:01.416Z,5.99
2019-02-23T02:27:28.606Z,6.07
2019-02-23T02:29:55.835Z,6.05
2019-02-23T02:32:23.165Z,6.02
2019-02-23T02:34:50.260Z,5.99
2019-02-23T02:37:17.417Z,5.89
2019-02-23T02:39:44.719Z,5.77
2019-02-23T02:42:11.895Z,5.77
2019-02-23T02:44:39.101Z,5.75
2019-02-23T02:47:06.284Z,5.68
2019-02-23T02:49:33.583Z,5.67
2019-02-23T02:52:00.743Z,5.80
2019-02-23T02:54:27.931Z,5.86
2019-02-23T02:56:55.130Z,5.87
2019-02-23T02:59:22.318Z,5.89
2019-02-23T03:01:49.501Z,5.83
2019-02-23T03:04:16.697Z,5.68
2019-02-23T03:06:43.852Z,5.58
2019-02-23T03:09:11.457Z,5.55
2019-02-23T03:11:40.428Z,5.47
2019-02-23T03:14:07.641Z,5.40
2019-02-23T03:16:35.099Z,5.30
2019-02-23T03:19:02.684Z,5.33
2019-02-23T03:21:30.199Z,5.55
2019-02-23T03:23:57.376Z,5.47
2019-02-23T03:26:24.589Z,5.33
2019-02-23T03:28:52.012Z,5.40
2019-02-23T03:31:19.199Z,5.19
2019-02-23T03:33:46.410Z,5.26
2019-02-23T03:36:13.623Z,5.22
2019-02-23T03:38:40.802Z,5.09
2019-02-23T03:41:08.085Z,4.96
2019-02-23T03:43:35.246Z,4.89
2019-02-23T03:46:02.434Z,4.88
2019-02-23T03:48:29.919Z,4.59
2019-02-23T03:50:56.987Z,4.46
2019-02-23T03:53:24.136Z,4.38
2019-02-23T03:55:51.459Z,4.36
2019-02-23T03:58:18.840Z,4.27
2019-02-23T04:00:46.007Z,4.24
2019-02-23T04:03:13.207Z,4.11
2019-02-23T04:05:40.252Z,4.16
2019-02-23T04:08:07.424Z,4.00
2019-02-23T04:10:34.746Z,3.78
2019-02-23T04:13:01.912Z,3.87
2019-02-23T04:15:29.162Z,3.74
2019-02-23T04:17:56.573Z,3.81
2019-02-23T04:20:23.791Z,3.73
2019-02-23T04:22:50.976Z,3.63
2019-02-23T04:25:18.162Z,3.59
2019-02-23T04:27:45.332Z,3.55
2019-02-23T04:30:12.536Z,3.57
2019-02-23T04:32:39.732Z,3.44
2019-02-23T04:35:06.882Z,3.39
2019-02-23T04:37:34.095Z,3.34
2019-02-23T04:40:01.601Z,3.33
2019-02-23T04:42:28.749Z,3.35
2019-02-23T04:44:55.972Z,3.29
2019-02-23T04:47:23.170Z,3.14
2019-02-23T04:49:54.142Z,3.13
2019-02-23T04:52:21.344Z,3.15
2019-02-23T04:54:48.538Z,3.33
2019-02-23T04:57:15.713Z,3.39
2019-02-23T04:59:42.890Z,3.05
2019-02-23T05:02:10.456Z,2.87
2019-02-23T05:04:37.664Z,2.76
2019-02-23T05:07:04.864Z,2.80
2019-02-23T05:09:32.045Z,2.72
2019-02-23T05:11:59.185Z,2.62
2019-02-23T05:14:26.390Z,2.75
2019-02-23T05:16:53.572Z,2.78
2019-02-23T05:19:20.732Z,2.73
2019-02-23T05:21:47.968Z,2.59
2019-02-23T05:24:15.359Z,2.70
2019-02-23T05:26:42.800Z,2.61
2019-02-23T05:29:10.080Z,2.80
2019-02-23T05:31:37.669Z,2.67
2019-02-23T05:34:04.916Z,2.64
2019-02-23T05:36:32.117Z,2.50
2019-02-23T05:38:59.311Z,2.42
2019-02-23T05:41:26.577Z,2.45
2019-02-23T05:43:53.768Z,2.41
2019-02-23T05:46:20.990Z,2.38
2019-02-23T05:48:48.446Z,2.32
2019-02-23T05:51:16.048Z,2.21
2019-02-23T05:53:43.251Z,2.22
2019-02-23T05:56:13.881Z,2.08
2019-02-23T05:58:39.730Z,1.94
2019-02-23T06:01:06.925Z,2.24
2019-02-23T06:03:34.095Z,2.10
2019-02-23T06:06:01.152Z,2.21
2019-02-23T06:08:28.605Z,2.19
2019-02-23T06:10:55.769Z,2.20
2019-02-23T06:13:22.959Z,2.12
2019-02-23T06:15:50.161Z,2.04
2019-02-23T06:18:17.327Z,1.97
2019-02-23T06:20:44.380Z,1.96
2019-02-23T06:23:11.643Z,2.11
2019-02-23T06:25:38.852Z,2.23
2019-02-23T06:28:06.084Z,2.15
2019-02-23T06:30:33.986Z,2.13
2019-02-23T06:33:01.194Z,2.13
2019-02-23T06:35:28.370Z,2.17
2019-02-23T06:37:55.578Z,2.24
2019-02-23T06:40:22.770Z,2.38
2019-02-23T06:42:49.926Z,2.50
2019-02-23T06:45:17.133Z,2.66
2019-02-23T06:47:44.208Z,2.80
2019-02-23T06:50:11.657Z,2.98
2019-02-23T06:52:39.211Z,3.16
2019-02-23T06:55:06.439Z,3.52
2019-02-23T06:57:33.650Z,4.06
2019-02-23T07:00:00.849Z,4.47
2019-02-23T07:02:28.056Z,4.85
2019-02-23T07:04:55.221Z,5.49
2019-02-23T07:07:22.469Z,6.21
2019-02-23T07:09:49.678Z,6.60
2019-02-23T07:12:16.903Z,6.82
2019-02-23T07:14:44.125Z,7.24
2019-02-23T07:17:11.209Z,7.61
2019-02-23T07:19:38.418Z,7.62
2019-02-23T07:22:15.017Z,7.13
2019-02-23T07:24:34.792Z,7.05
2019-02-23T07:27:02.062Z,7.34
2019-02-23T07:29:29.273Z,7.90
2019-02-23T07:31:56.479Z,8.40
2019-02-23T07:34:23.996Z,9.13
2019-02-23T07:36:51.236Z,10.25
2019-02-23T07:39:18.557Z,11.37
2019-02-23T07:41:46.146Z,11.83
2019-02-23T07:44:13.302Z,11.87
2019-02-23T07:46:40.520Z,12.05
2019-02-23T07:49:07.707Z,12.81
2019-02-23T07:51:35.339Z,13.81
2019-02-23T07:54:02.573Z,14.38
2019-02-23T07:56:29.783Z,15.31
2019-02-23T07:58:56.993Z,15.28
2019-02-23T08:01:24.176Z,15.92
2019-02-23T08:03:51.383Z,15.58
2019-02-23T08:06:18.985Z,15.26
2019-02-23T08:08:46.280Z,16.40
2019-02-23T08:11:13.527Z,17.61
2019-02-23T08:13:40.906Z,17.45
2019-02-23T08:16:08.029Z,18.44
2019-02-23T08:18:35.229Z,19.86
2019-02-23T08:21:02.427Z,19.74
2019-02-23T08:23:29.654Z,18.78
2019-02-23T08:25:58.133Z,18.40
2019-02-23T08:28:25.356Z,19.42
2019-02-23T08:30:52.545Z,20.57
2019-02-23T08:33:19.753Z,21.05
2019-02-23T08:35:47.114Z,19.24
2019-02-23T08:38:14.324Z,18.27
2019-02-23T08:40:41.524Z,18.60
2019-02-23T08:43:08.775Z,17.30
2019-02-23T08:45:35.982Z,17.70
2019-02-23T08:48:03.064Z,17.87
2019-02-23T08:50:30.201Z,17.59
2019-02-23T08:52:57.385Z,18.51
2019-02-23T08:55:24.922Z,19.03
2019-02-23T08:57:52.131Z,18.99
2019-02-23T09:00:19.354Z,19.60
2019-02-23T09:02:46.457Z,19.86
2019-02-23T09:05:13.731Z,20.46
2019-02-23T09:07:40.896Z,18.89
2019-02-23T09:10:09.122Z,18.23
2019-02-23T09:12:36.734Z,18.31
2019-02-23T09:15:04.811Z,19.48
2019-02-23T09:17:32.101Z,20.49
2019-02-23T09:19:59.328Z,19.21
2019-02-23T09:22:26.540Z,17.27
2019-02-23T09:24:53.761Z,15.87
2019-02-23T09:27:21.344Z,14.90
2019-02-23T09:29:48.800Z,14.26
2019-02-23T09:32:15.992Z,13.44
2019-02-23T09:34:43.194Z,11.79
2019-02-23T09:37:10.363Z,11.29
2019-02-23T09:39:37.590Z,11.06
2019-02-23T09:42:07.754Z,9.83
2019-02-23T09:44:34.247Z,8.99
2019-02-23T09:47:01.460Z,8.56
2019-02-23T09:49:28.680Z,8.54
2019-02-23T09:51:55.911Z,8.63
2019-02-23T09:54:23.513Z,8.23
2019-02-23T09:56:51.014Z,8.19
2019-02-23T09:59:18.227Z,8.06
2019-02-23T10:01:45.438Z,7.93
2019-02-23T10:04:12.648Z,7.69
2019-02-23T10:06:39.800Z,7.61
2019-02-23T10:09:07.730Z,7.49
2019-02-23T10:11:40.968Z,7.62
2019-02-23T10:14:08.147Z,7.51
2019-02-23T10:16:35.607Z,7.73
2019-02-23T10:19:02.798Z,7.87
2019-02-23T10:21:29.977Z,7.73
2019-02-23T10:23:57.144Z,7.84
2019-02-23T10:26:24.436Z,8.04
2019-02-23T10:28:51.907Z,8.04
2019-02-23T10:31:19.078Z,7.77
2019-02-23T10:33:47.896Z,7.85
2019-02-23T10:36:15.126Z,7.85
2019-02-23T10:38:42.333Z,7.61
2019-02-23T10:41:09.536Z,7.61
2019-02-23T10:43:36.734Z,7.70
2019-02-23T10:46:03.936Z,7.56
2019-02-23T10:48:31.173Z,7.61
2019-02-23T10:50:58.234Z,7.63
2019-02-23T10:53:32.579Z,7.55
2019-02-23T10:55:54.519Z,7.54
2019-02-23T10:58:21.712Z,7.59
2019-02-23T11:00:48.888Z,7.76
2019-02-23T11:03:16.096Z,7.85
2019-02-23T11:05:43.263Z,7.90
2019-02-23T11:08:10.508Z,8.01
2019-02-23T11:10:37.712Z,7.79
2019-02-23T11:13:05.161Z,7.67
2019-02-23T11:15:32.433Z,7.95
2019-02-23T11:17:59.569Z,8.02
2019-02-23T11:20:27.034Z,8.09
2019-02-23T11:22:54.187Z,8.15
2019-02-23T11:25:21.434Z,8.22
2019-02-23T11:27:48.966Z,8.21
2019-02-23T11:30:16.553Z,8.33
2019-02-23T11:32:43.757Z,8.14
2019-02-23T11:35:11.177Z,8.01
2019-02-23T11:37:38.417Z,8.11
2019-02-23T11:40:07.240Z,8.29
2019-02-23T11:42:34.425Z,8.43
2019-02-23T11:45:01.612Z,8.31
2019-02-23T11:47:28.764Z,8.36
2019-02-23T11:49:55.973Z,8.55
2019-02-23T11:52:23.746Z,8.67
2019-02-23T11:54:50.990Z,8.82
2019-02-23T11:57:18.159Z,9.08
2019-02-23T11:59:45.351Z,9.22
2019-02-23T12:02:12.557Z,9.41
2019-02-23T12:04:39.742Z,9.58
2019-02-23T12:07:06.919Z,9.64
2019-02-23T12:09:34.154Z,9.71
2019-02-23T12:12:01.346Z,9.64
2019-02-23T12:14:28.539Z,9.60
2019-02-23T12:16:55.755Z,9.49
2019-02-23T12:19:22.948Z,9.55
2019-02-23T12:21:50.189Z,9.58
2019-02-23T12:24:17.403Z,9.52
2019-02-23T12:26:44.629Z,9.61
2019-02-23T12:29:11.857Z,9.58
2019-02-23T12:31:39.357Z,9.68
2019-02-23T12:34:06.512Z,9.84
2019-02-23T12:36:33.700Z,10.00
2019-02-23T12:39:00.925Z,10.02
2019-02-23T12:41:28.272Z,10.08
2019-02-23T12:43:55.442Z,10.25
2019-02-23T12:46:22.678Z,10.31
2019-02-23T12:48:49.839Z,10.38
2019-02-23T12:51:17.331Z,10.21
2019-02-23T12:53:44.858Z,10.16
2019-02-23T12:56:12.152Z,10.04
2019-02-23T12:58:40.101Z,10.14
2019-02-23T13:01:07.431Z,10.21
2019-02-23T13:03:34.599Z,10.29
2019-02-23T13:06:01.669Z,10.32
2019-02-23T13:09:09.842Z,10.53
2019-02-23T13:11:37.302Z,10.69
2019-02-23T13:14:29.381Z,10.77
2019-02-23T13:17:32.033Z,10.78
2019-02-23T13:20:24.471Z,10.78
2019-02-23T13:23:26.440Z,11.07
2019-02-23T13:26:20.333Z,11.08
2019-02-23T13:29:26.926Z,10.67
2019-02-23T13:32:05.849Z,10.53
2019-02-23T13:35:09.249Z,10.44
2019-02-23T13:38:11.664Z,10.44
2019-02-23T13:41:26.495Z,10.61
2019-02-23T13:44:50.685Z,10.71
2019-02-23T13:47:49.734Z,10.72
2019-02-23T13:50:32.892Z,10.79
2019-02-23T13:53:56.758Z,10.85
2019-02-23T13:57:11.468Z,10.93
2019-02-23T14:00:10.789Z,10.87
2019-02-23T14:03:28.930Z,10.76
2019-02-23T14:06:21.215Z,10.90
2019-02-23T14:09:26.471Z,10.89
2019-02-23T14:12:41.354Z,10.61
2019-02-23T14:15:40.345Z,10.48
2019-02-23T14:18:55.934Z,10.49
2019-02-23T14:22:02.044Z,10.46
2019-02-23T14:24:54.553Z,10.34
2019-02-23T14:28:11.054Z,10.49
2019-02-23T14:31:11.878Z,10.48
2019-02-23T14:33:53.045Z,10.40
2019-02-23T14:36:51.560Z,10.25
2019-02-23T14:39:40.954Z,10.24
2019-02-23T14:42:23.766Z,10.37
2019-02-23T14:45:24.268Z,10.41
2019-02-23T14:48:23.414Z,10.34
2019-02-23T14:51:21.234Z,10.33
2019-02-23T14:54:03.745Z,10.27
2019-02-23T14:57:09.920Z,10.36
2019-02-23T15:00:15.152Z,10.29
2019-02-23T15:03:07.809Z,10.26
2019-02-23T15:05:53.492Z,10.21
2019-02-23T15:08:41.096Z,10.24
2019-02-23T15:11:56.494Z,10.26
2019-02-23T15:15:04.150Z,10.20
2019-02-23T15:18:06.988Z,10.04
2019-02-23T15:21:15.521Z,9.93
2019-02-23T15:24:06.493Z,9.89
2019-02-23T15:27:07.212Z,9.78
2019-02-23T15:29:49.701Z,9.54
2019-02-23T15:33:04.827Z,9.47
2019-02-23T15:35:40.043Z,9.35
2019-02-23T15:38:20.900Z,9.24
2019-02-23T15:41:40.277Z,9.35
2019-02-23T15:44:39.539Z,9.32
2019-02-23T15:47:48.394Z,9.17
2019-02-23T15:50:16.003Z,9.13
2019-02-23T15:52:43.463Z,9.17
2019-02-23T15:55:10.671Z,9.10
2019-02-23T15:57:37.852Z,9.03
2019-02-23T16:00:05.257Z,9.03
2019-02-23T16:02:32.728Z,9.03
2019-02-23T16:05:00.263Z,9.04
2019-02-23T16:07:27.440Z,8.88
2019-02-23T16:09:54.678Z,8.74
2019-02-23T16:12:21.934Z,8.67
2019-02-23T16:14:49.135Z,8.66
2019-02-23T16:17:16.448Z,8.72
2019-02-23T16:19:43.600Z,8.66
2019-02-23T16:22:11.107Z,8.57
2019-02-23T16:24:38.389Z,8.56
2019-02-23T16:27:05.884Z,8.44
2019-02-23T16:29:33.196Z,8.28
2019-02-23T16:32:00.472Z,8.13
2019-02-23T16:34:27.684Z,7.95
2019-02-23T16:36:55.004Z,7.83
2019-02-23T16:39:22.202Z,7.73
2019-02-23T16:41:49.442Z,7.55
2019-02-23T16:44:16.586Z,7.47
2019-02-23T16:46:46.281Z,7.36
2019-02-23T16:49:12.866Z,7.30
2019-02-23T16:51:40.420Z,7.21
2019-02-23T16:54:08.011Z,7.17
2019-02-23T16:56:35.624Z,7.28
2019-02-23T16:59:03.319Z,7.19
2019-02-23T17:01:31.233Z,7.05
2019-02-23T17:03:58.396Z,6.92
2019-02-23T17:06:25.668Z,6.89
2019-02-23T17:08:53.515Z,6.99
2019-02-23T17:11:20.752Z,7.15
2019-02-23T17:13:48.020Z,7.02
2019-02-23T17:16:15.540Z,6.83
2019-02-23T17:18:42.773Z,6.93
2019-02-23T17:21:09.933Z,7.07
2019-02-23T17:23:37.148Z,7.04
2019-02-23T17:26:04.780Z,6.93
2019-02-23T17:28:31.958Z,7.11
2019-02-23T17:30:59.112Z,7.08
2019-02-23T17:33:28.008Z,7.22
2019-02-23T17:35:55.197Z,7.25
2019-02-23T17:38:22.479Z,7.21
2019-02-23T17:40:49.680Z,7.26
2019-02-23T17:43:16.884Z,7.15
2019-02-23T17:45:44.098Z,7.07
2019-02-23T17:48:11.201Z,7.09
2019-02-23T17:50:38.307Z,7.09
2019-02-23T17:53:05.607Z,7.16
2019-02-23T17:55:32.922Z,6.92
2019-02-23T17:58:00.114Z,7.03
2019-02-23T18:00:27.370Z,7.03
2019-02-23T18:02:54.517Z,7.11
2019-02-23T18:05:21.751Z,6.96
2019-02-23T18:07:48.928Z,6.88
2019-02-23T18:10:16.159Z,6.89
2019-02-23T18:12:43.388Z,6.84
2019-02-23T18:15:10.584Z,6.85
2019-02-23T18:17:37.791Z,7.05
2019-02-23T18:20:05.943Z,7.07
2019-02-23T18:22:33.386Z,6.83
2019-02-23T18:25:00.607Z,6.68
2019-02-23T18:27:27.787Z,6.66
2019-02-23T18:29:54.992Z,6.92
2019-02-23T18:32:22.203Z,6.91
2019-02-23T18:34:49.388Z,6.87
2019-02-23T18:37:16.552Z,6.86
2019-02-23T18:39:43.790Z,6.84
2019-02-23T18:42:11.276Z,6.79
2019-02-23T18:44:38.840Z,6.63
2019-02-23T18:47:06.109Z,6.59
2019-02-23T18:49:33.288Z,6.59
2019-02-23T18:52:00.775Z,6.88
2019-02-23T18:54:28.070Z,6.79
2019-02-23T18:56:55.520Z,6.62
2019-02-23T18:59:22.766Z,6.81
2019-02-23T19:01:49.968Z,6.64
2019-02-23T19:04:17.694Z,6.59
2019-02-23T19:06:44.921Z,6.41
2019-02-23T19:09:12.162Z,6.31
2019-02-23T19:11:39.480Z,6.34
2019-02-23T19:14:06.664Z,6.15
2019-02-23T19:16:33.860Z,6.14
2019-02-23T19:19:01.335Z,5.95
2019-02-23T19:21:28.524Z,5.76
2019-02-23T19:23:55.858Z,5.58
2019-02-23T19:26:23.562Z,5.47
2019-02-23T19:28:50.888Z,5.41
2019-02-23T19:31:18.104Z,5.36
2019-02-23T19:33:45.295Z,5.30
2019-02-23T19:36:12.477Z,5.29
2019-02-23T19:38:40.102Z,5.31
2019-02-23T19:41:07.285Z,5.24
2019-02-23T19:43:34.659Z,5.19
2019-02-23T19:46:01.915Z,5.07
2019-02-23T19:48:29.409Z,4.98
2019-02-23T19:51:00.148Z,4.89
2019-02-23T19:53:27.380Z,4.78
2019-02-23T19:55:54.569Z,4.68
2019-02-23T19:58:21.800Z,4.58
2019-02-23T20:00:48.997Z,4.49
2019-02-23T20:03:16.063Z,4.42
2019-02-23T20:05:43.418Z,4.33
2019-02-23T20:08:10.672Z,4.29
2019-02-23T20:10:38.259Z,4.23
2019-02-23T20:13:05.535Z,4.20
2019-02-23T20:15:32.646Z,4.20
2019-02-23T20:17:59.733Z,4.14
2019-02-23T20:20:27.238Z,4.07
2019-02-23T20:22:54.483Z,4.03
2019-02-23T20:25:21.644Z,3.97
2019-02-23T20:27:48.845Z,3.91
2019-02-23T20:30:16.057Z,3.87
2019-02-23T20:32:43.598Z,3.87
2019-02-23T20:35:10.806Z,3.82
2019-02-23T20:37:38.189Z,3.82
2019-02-23T20:40:06.077Z,3.85
2019-02-23T20:42:33.293Z,3.82
2019-02-23T20:45:00.802Z,3.86
2019-02-23T20:47:28.429Z,3.91
2019-02-23T20:49:55.617Z,3.93
2019-02-23T20:52:22.785Z,3.90
2019-02-23T20:54:49.992Z,3.88
2019-02-23T20:57:17.346Z,3.86
2019-02-23T20:59:44.570Z,4.02
2019-02-23T21:02:11.768Z,3.98
2019-02-23T21:04:39.204Z,3.97
2019-02-23T21:07:06.674Z,3.91
2019-02-23T21:09:33.998Z,3.98
2019-02-23T21:12:01.215Z,3.95
2019-02-23T21:14:28.429Z,3.88
2019-02-23T21:16:55.904Z,3.82
2019-02-23T21:19:23.088Z,3.81
2019-02-23T21:21:50.285Z,3.80
2019-02-23T21:24:17.500Z,3.85
2019-02-23T21:26:44.980Z,3.96
2019-02-23T21:29:14.631Z,4.01
2019-02-23T21:31:41.875Z,3.94
2019-02-23T21:34:12.479Z,3.88
2019-02-23T21:36:39.932Z,3.85
2019-02-23T21:39:07.853Z,3.78
2019-02-23T21:41:35.202Z,3.76
2019-02-23T21:44:02.402Z,3.70
2019-02-23T21:46:29.839Z,3.67
2019-02-23T21:48:57.092Z,3.64
2019-02-23T21:51:24.341Z,3.62
2019-02-23T21:53:51.691Z,3.57
2019-02-23T21:56:18.978Z,3.56
2019-02-23T21:58:46.141Z,3.52
2019-02-23T22:01:13.394Z,3.53
2019-02-23T22:03:40.621Z,3.54
2019-02-23T22:06:08.069Z,3.50
2019-02-23T22:08:35.685Z,3.53
2019-02-23T22:11:02.926Z,3.51
2019-02-23T22:13:30.445Z,3.55
2019-02-23T22:15:57.626Z,3.56
2019-02-23T22:18:24.832Z,3.60
2019-02-23T22:20:51.893Z,3.63
2019-02-23T22:23:19.092Z,3.63
2019-02-23T22:25:46.295Z,3.59
2019-02-23T22:28:13.493Z,3.54
2019-02-23T22:30:40.660Z,3.55
2019-02-23T22:33:07.852Z,3.51
2019-02-23T22:35:34.921Z,3.49
2019-02-23T22:38:02.129Z,3.48
2019-02-23T22:40:29.325Z,3.50
2019-02-23T22:42:56.521Z,3.50
2019-02-23T22:45:23.696Z,3.51
2019-02-23T22:47:50.816Z,3.51
2019-02-23T22:50:17.976Z,3.52
2019-02-23T22:52:45.141Z,3.50
2019-02-23T22:55:12.379Z,3.49
2019-02-23T22:57:40.858Z,3.46
2019-02-23T23:00:09.776Z,3.41
2019-02-23T23:02:36.995Z,3.38
2019-02-23T23:05:04.268Z,3.37
2019-02-23T23:07:31.449Z,3.30
2019-02-23T23:09:58.661Z,3.26
2019-02-23T23:12:25.823Z,3.20
2019-02-23T23:14:52.996Z,3.19
2019-02-23T23:17:20.233Z,3.17
2019-02-23T23:19:47.613Z,3.18
2019-02-23T23:22:14.773Z,3.17
2019-02-23T23:24:42.072Z,3.13
2019-02-23T23:27:09.259Z,3.10
2019-02-23T23:29:36.468Z,3.08
2019-02-23T23:32:03.674Z,3.05
2019-02-23T23:34:30.840Z,3.06
2019-02-23T23:36:58.333Z,3.05
2019-02-23T23:39:25.576Z,3.01
2019-02-23T23:41:52.796Z,3.00
2019-02-23T23:44:20.324Z,2.96
2019-02-23T23:46:47.824Z,2.91
2019-02-23T23:49:14.997Z,2.89
2019-02-23T23:51:42.167Z,2.81
2019-02-23T23:54:09.437Z,2.80
2019-02-23T23:56:36.618Z,2.79
2019-02-23T23:59:03.896Z,2.71
